• Join FlightAware (Why Join?)
  • Login
  • US Flag GB Flag 
23:22 EST


 

Airport Tracker/Info


-or-


 

Live Flight TrackerFlight Track Log ✈ AAY840 ✈ 12-Jan-2014 ✈ KPIE - KTRI

Flight Track Log - Related Links

Times and Time Zones

All times are in EST time to prevent confusion due to time zone crossing. See the AAY840 flight status page for this flight to view local times or setup timezone preferences in your user account.

Time Position Orientation Groundspeed Altitude Reporting Facility
EST Latitude Longitude Course Direction KTS MPH feet Rate Location/Type
07:24 27.9333 -82.7000 360° North 181 208 1,000  Level Tampa TRACON
07:25 27.9333 -82.7000 30° Northeast 175 201 1,300 2,273 Climbing Tampa TRACON
07:26 27.9833 -82.6667 30° Northeast 208 239 3,500 2,269 Climbing Tampa TRACON
07:28 28.1350 -82.6314 12° North 250 288 8,900 2,328 Climbing Jacksonville Center
07:29 28.2164 -82.6169 North 277 319 11,300 2,550 Climbing Jacksonville Center
07:30 28.3061 -82.5931 13° North 300 345 14,000 2,700 Climbing Jacksonville Center
07:31 28.4000 -82.5717 11° North 323 372 16,700 2,350 Climbing Jacksonville Center
07:32 28.4981 -82.5478 12° North 341 392 18,700 1,650 Climbing Jacksonville Center
07:33 28.6003 -82.5475 360° North 354 407 20,000 1,250 Climbing Jacksonville Center
07:34 28.7108 -82.5422 North 360 414 21,200 1,350 Climbing Jacksonville Center
07:35 28.8172 -82.5442 359° North 360 414 22,700 1,500 Climbing Jacksonville Center
07:36 28.9258 -82.5367 North 373 429 24,200 1,550 Climbing Jacksonville Center
07:37 29.0386 -82.5386 359° North 386 444 25,800 1,550 Climbing Jacksonville Center
07:38 29.1553 -82.5336 North 398 458 27,300 1,350 Climbing Jacksonville Center
07:39 29.2722 -82.5378 358° North 410 472 28,500 1,150 Climbing Jacksonville Center
07:40 29.3933 -82.5328 North 422 486 29,600 1,050 Climbing Jacksonville Center
07:41 29.5208 -82.5347 359° North 434 499 30,600 1,100 Climbing Jacksonville Center
07:42 29.6481 -82.5269 North 446 513 31,800 1,000 Climbing Jacksonville Center
07:43 29.7775 -82.5314 358° North 446 513 32,600 600 Climbing Jacksonville Center
07:44 29.9028 -82.5236 North 452 520 33,000 200 Climbing Jacksonville Center
07:45 30.0114 -82.5281 358° North 446 513 33,000  Level Jacksonville Center
07:46 30.1325 -82.5250 North 435 501 33,000 450 Level Jacksonville Center
07:47 30.2472 -82.5272 359° North 420 483 33,900 900 Climbing Jacksonville Center
07:48 30.3683 -82.5242 North 420 483 34,800 550 Climbing Jacksonville Center
07:49 30.4894 -82.5261 359° North 415 478 35,000 100 Climbing Jacksonville Center
07:50 30.6064 -82.5233 North 415 478 35,000  Level Jacksonville Center
07:51 30.7233 -82.5228 360° North 415 478 35,000  Level Jacksonville Center
07:52 30.8403 -82.5200 North 415 478 35,000  Level Jacksonville Center
07:53 30.9550 -82.5194 360° North 415 478 35,000  Level Jacksonville Center
07:54 31.0697 -82.5167 North 410 472 35,000  Level Jacksonville Center
07:56 31.2989 -82.5128 North 418 481 35,000 32 Level Atlanta Center
07:57 31.4136 -82.5108 North 413 475 35,100  Climbing Atlanta Center
07:58 31.5306 -82.5089 North 413 475 35,000  Descending Atlanta Center
07:59 31.6472 -82.4875 North 418 481 35,100 50 Climbing Atlanta Center
08:00 31.7658 -82.4731 North 423 487 35,100 -50 Level Atlanta Center
08:01 31.8847 -82.4539 North 423 487 35,000  Descending Atlanta Center
08:02 32.0033 -82.4372 North 428 493 35,100  Climbing Atlanta Center
08:03 32.1200 -82.4153 North 421 484 35,000 -50 Descending Atlanta Center
08:04 32.2344 -82.4011 North 426 490 35,000 50 Level Atlanta Center
08:05 32.3492 -82.3792 North 414 476 35,100  Climbing Atlanta Center
08:06 32.4636 -82.3600 North 414 476 35,000  Descending Atlanta Center
08:07 32.5781 -82.3453 North 414 476 35,100 50 Climbing Atlanta Center
08:08 32.6928 -82.3283 North 409 471 35,100 -50 Level Atlanta Center
08:09 32.8114 -82.3064 North 414 476 35,000 -50 Descending Atlanta Center
08:10 32.9239 -82.2867 North 414 476 35,000  Level Atlanta Center
08:11 33.0364 -82.2722 North 404 465 35,000  Level Atlanta Center
08:12 33.1531 -82.2497 North 412 474 35,000  Level Atlanta Center
08:13 33.2697 -82.2350 North 412 474 35,000 50 Level Atlanta Center
08:14 33.3883 -82.2103 10° North 418 481 35,100 50 Climbing Atlanta Center
08:15 33.5028 -82.1978 North 418 481 35,100 -50 Level Atlanta Center
08:16 33.6172 -82.1753 North 418 481 35,000 -50 Descending Atlanta Center
08:17 33.7339 -82.1553 North 423 487 35,000  Level Atlanta Center
08:18 33.8608 -82.1325 North 423 487 35,000 50 Level Atlanta Center
08:19 33.9775 -82.1175 North 423 487 35,100 50 Climbing Atlanta Center
08:20 34.0939 -82.0947 North 423 487 35,100 -150 Level Atlanta Center
08:21 34.2086 -82.0769 North 423 487 34,800 -300 Descending Atlanta Center
08:22 34.3189 -82.0544 10° North 417 480 34,500 -450 Descending Atlanta Center
08:23 34.4292 -82.0392 North 401 461 33,900 -650 Descending Atlanta Center
08:24 34.5289 -82.0192 North 385 443 33,200 -1,600 Descending Atlanta Center
08:25 34.6350 -81.9964 10° North 380 437 30,700 -2,500 Descending Atlanta Center
08:26 34.7411 -81.9811 North 380 437 28,200 -2,500 Descending Atlanta Center
08:27 34.8514 -81.9608 North 380 437 25,700 -2,100 Descending Atlanta Center
08:28 34.9575 -81.9456 North 385 443 24,000 -850 Descending Atlanta Center
08:29 35.0533 -81.9253 10° North 372 428 24,000  Level Atlanta Center
08:30 35.1392 -81.9433 350° North 331 381 24,000  Level Atlanta Center
08:31 35.2269 -81.9564 353° North 318 366 24,000 -50 Level Atlanta Center
08:32 35.3086 -81.9697 352° North 318 366 23,900 -350 Descending Atlanta Center
08:33 35.3944 -81.9828 353° North 313 360 23,300 -1,200 Descending Atlanta Center
08:34 35.4800 -81.9933 354° North 313 360 21,500 -1,850 Descending Atlanta Center
08:35 35.5619 -82.0219 344° North 307 353 19,600 -1,850 Descending Atlanta Center
08:36 35.6353 -82.0508 342° North 288 331 17,800 -1,750 Descending Atlanta Center
08:37 35.7089 -82.0822 341° North 288 331 16,100 -1,750 Descending Atlanta Center
08:38 35.7867 -82.1136 342° North 277 319 14,300 -1,750 Descending Atlanta Center
08:39 35.8558 -82.1428 341° North 265 305 12,600 -1,650 Descending Atlanta Center
08:40 35.9211 -82.1719 340° North 259 298 11,000 -800 Descending Atlanta Center
08:41 35.9881 -82.2014 340° North 254 292 11,000 -50 Level Atlanta Center
08:42 36.0553 -82.2256 344° North 254 292 10,900 -850 Descending Atlanta Center
08:43 36.1206 -82.2575 338° Northwest 249 287 9,300 -1,650 Descending Atlanta Center
08:44 36.1833 -82.2844 341° North 243 280 7,600 -1,650 Descending Atlanta Center
08:45 36.2481 -82.2931 354° North 238 274 6,000 -800 Descending Atlanta Center
08:46 36.3025 -82.2919 North 216 249 6,000 -300 Level Atlanta Center
08:47 36.3564 -82.2831 North 198 228 5,400 -950 Descending Atlanta Center
08:48 36.4061 -82.2614 19° North 188 216 4,100 -700 Descending Atlanta Center
08:49 36.4519 -82.2450 16° North 174 200 4,000 -100 Descending Atlanta Center
08:51 36.4667 -82.4000 North  Level FlightAware Approximate
08:58 36.4752 -82.4074 North  Level Estimated
08:59 36.4752 -82.4074 North  Level Estimated